createdAt,value
2022-08-09T00:00:11.985Z,16.83
2022-08-09T00:01:10.744Z,16.91
2022-08-09T00:02:08.854Z,16.91
2022-08-09T00:03:10.797Z,16.90
2022-08-09T00:04:24.844Z,16.91
2022-08-09T00:06:17.501Z,16.92
2022-08-09T00:06:19.618Z,16.95
2022-08-09T00:07:10.808Z,16.90
2022-08-09T00:08:09.865Z,16.94
2022-08-09T00:09:07.689Z,16.92
2022-08-09T00:10:07.702Z,16.95
2022-08-09T00:11:24.791Z,16.95
2022-08-09T00:12:08.664Z,16.91
2022-08-09T00:13:16.813Z,16.94
2022-08-09T00:14:08.640Z,16.95
2022-08-09T00:15:07.643Z,16.98
2022-08-09T00:16:08.614Z,16.95
2022-08-09T00:17:07.596Z,16.99
2022-08-09T00:18:11.410Z,16.97
2022-08-09T00:19:09.388Z,16.97
2022-08-09T00:20:07.560Z,16.95
2022-08-09T00:21:08.500Z,16.95
2022-08-09T00:22:07.540Z,16.91
2022-08-09T00:23:56.723Z,16.98
2022-08-09T00:24:08.534Z,16.97
2022-08-09T00:25:09.993Z,16.95
2022-08-09T00:26:08.498Z,16.94
2022-08-09T00:27:07.490Z,16.91
2022-08-09T00:28:07.490Z,17.04
2022-08-09T00:29:12.394Z,16.95
2022-08-09T00:30:25.158Z,17.01
2022-08-09T00:31:09.340Z,17.01
2022-08-09T00:32:08.441Z,16.97
2022-08-09T00:33:07.438Z,16.98
2022-08-09T00:34:07.471Z,16.95
2022-08-09T00:35:07.402Z,17.02
2022-08-09T00:36:07.405Z,16.98
2022-08-09T00:37:07.386Z,17.02
2022-08-09T00:38:07.371Z,17.02
2022-08-09T00:39:17.080Z,17.12
2022-08-09T00:40:13.567Z,17.07
2022-08-09T00:41:08.387Z,17.10
2022-08-09T00:44:10.959Z,17.12
2022-08-09T00:44:13.799Z,17.12
2022-08-09T00:44:25.128Z,17.22
2022-08-09T00:45:16.083Z,17.19
2022-08-09T00:46:08.290Z,17.25
2022-08-09T00:47:07.277Z,17.19
2022-08-09T00:48:07.270Z,17.17
2022-08-09T00:49:07.275Z,17.19
2022-08-09T00:50:07.260Z,17.30
2022-08-09T00:51:10.424Z,17.19
2022-08-09T00:52:17.263Z,17.25
2022-08-09T00:53:10.101Z,17.17
2022-08-09T00:54:07.197Z,17.17
2022-08-09T00:55:07.212Z,17.22
2022-08-09T00:56:09.771Z,17.16
2022-08-09T00:57:08.934Z,17.09
2022-08-09T00:58:07.160Z,17.17
2022-08-09T00:59:07.151Z,17.12
2022-08-09T01:00:21.952Z,17.17
2022-08-09T01:01:08.217Z,17.07
2022-08-09T01:02:08.113Z,17.07
2022-08-09T01:03:07.100Z,17.06
2022-08-09T01:04:07.097Z,17.10
2022-08-09T01:05:14.125Z,17.07
2022-08-09T01:06:17.592Z,17.12
2022-08-09T01:07:08.114Z,17.09
2022-08-09T01:08:08.053Z,17.04
2022-08-09T01:09:07.045Z,17.10
2022-08-09T01:10:07.031Z,17.02
2022-08-09T01:11:08.673Z,16.98
2022-08-09T01:12:08.513Z,16.98
2022-08-09T01:13:07.407Z,17.01
2022-08-09T01:14:06.985Z,16.98
2022-08-09T01:15:17.041Z,16.91
2022-08-09T01:16:07.976Z,16.94
2022-08-09T01:17:08.840Z,16.95
2022-08-09T01:18:06.946Z,16.95
2022-08-09T01:19:06.932Z,16.97
2022-08-09T01:20:07.922Z,16.95
2022-08-09T01:21:06.907Z,16.98
2022-08-09T01:22:06.910Z,16.92
2022-08-09T01:24:00.468Z,16.95
2022-08-09T01:24:07.880Z,16.94
2022-08-09T01:25:06.887Z,16.91
2022-08-09T01:26:06.854Z,16.97
2022-08-09T01:27:08.016Z,16.94
2022-08-09T01:28:06.850Z,16.98
2022-08-09T01:29:06.824Z,16.98
2022-08-09T01:30:06.818Z,16.94
2022-08-09T01:31:06.841Z,16.90
2022-08-09T01:32:30.714Z,16.91
2022-08-09T01:33:10.007Z,16.90
2022-08-09T01:34:06.772Z,16.95
2022-08-09T01:35:28.791Z,16.95
2022-08-09T01:36:07.744Z,16.92
2022-08-09T01:37:06.740Z,16.92
2022-08-09T01:38:10.603Z,16.97
2022-08-09T01:39:07.759Z,16.97
2022-08-09T01:40:06.727Z,16.88
2022-08-09T01:41:06.704Z,16.88
2022-08-09T01:42:11.066Z,16.88
2022-08-09T01:43:06.679Z,16.90
2022-08-09T01:44:06.688Z,16.95
2022-08-09T01:45:06.658Z,16.90
2022-08-09T01:46:06.643Z,16.91
2022-08-09T01:47:06.624Z,16.91
2022-08-09T01:48:07.645Z,16.90
2022-08-09T01:49:10.078Z,16.91
2022-08-09T01:50:06.653Z,16.95
2022-08-09T01:51:06.578Z,16.94
2022-08-09T01:52:07.617Z,16.88
2022-08-09T01:53:19.563Z,16.88
2022-08-09T01:54:07.579Z,16.82
2022-08-09T01:55:06.550Z,16.80
2022-08-09T01:56:06.532Z,16.82
2022-08-09T01:57:06.529Z,16.83
2022-08-09T01:58:06.508Z,16.87
2022-08-09T01:59:06.535Z,16.82
2022-08-09T02:00:08.802Z,16.79
2022-08-09T02:01:06.519Z,16.73
2022-08-09T02:02:06.571Z,16.76
2022-08-09T02:03:06.460Z,16.83
2022-08-09T02:04:06.466Z,16.82
2022-08-09T02:05:15.120Z,16.77
2022-08-09T02:06:07.447Z,16.73
2022-08-09T02:07:06.429Z,16.73
2022-08-09T02:08:41.353Z,16.79
2022-08-09T02:09:07.384Z,16.77
2022-08-09T02:10:06.415Z,16.84
2022-08-09T02:11:16.689Z,16.77
2022-08-09T02:12:07.348Z,16.79
2022-08-09T02:13:06.351Z,16.77
2022-08-09T02:14:07.823Z,16.79
2022-08-09T02:15:07.587Z,16.73
2022-08-09T02:16:06.309Z,16.76
2022-08-09T02:17:15.154Z,16.76
2022-08-09T02:18:09.910Z,16.74
2022-08-09T02:19:06.289Z,16.73
2022-08-09T02:20:06.266Z,16.77
2022-08-09T02:21:06.283Z,16.76
2022-08-09T02:22:06.269Z,16.77
2022-08-09T02:23:06.237Z,16.87
2022-08-09T02:24:06.252Z,16.76
2022-08-09T02:25:06.640Z,16.84
2022-08-09T02:26:06.209Z,16.88
2022-08-09T02:27:06.196Z,16.84
2022-08-09T02:28:09.521Z,16.91
2022-08-09T02:29:06.193Z,16.92
2022-08-09T02:30:06.181Z,16.90
2022-08-09T02:31:06.269Z,17.01
2022-08-09T02:32:06.145Z,16.94
2022-08-09T02:33:07.787Z,16.88
2022-08-09T02:34:13.800Z,16.94
2022-08-09T02:35:17.262Z,16.95
2022-08-09T02:36:07.107Z,16.91
2022-08-09T02:37:06.786Z,16.95
2022-08-09T02:38:06.085Z,16.92
2022-08-09T02:39:06.156Z,16.98
2022-08-09T02:40:10.294Z,16.99
2022-08-09T02:41:06.061Z,16.95
2022-08-09T02:42:06.037Z,16.97
2022-08-09T02:43:06.021Z,16.97
2022-08-09T02:44:10.297Z,17.01
2022-08-09T02:45:07.000Z,16.92
2022-08-09T02:46:06.011Z,16.94
2022-08-09T02:47:05.983Z,16.91
2022-08-09T02:48:05.958Z,16.90
2022-08-09T02:49:06.959Z,16.90
2022-08-09T02:50:05.949Z,16.97
2022-08-09T02:51:05.928Z,16.97
2022-08-09T02:52:05.936Z,16.98
2022-08-09T02:53:05.924Z,16.97
2022-08-09T02:54:05.906Z,16.99
2022-08-09T02:55:20.906Z,17.02
2022-08-09T02:56:06.888Z,17.02
2022-08-09T02:57:14.042Z,16.95
2022-08-09T02:58:37.136Z,16.91
2022-08-09T02:59:06.853Z,16.99
2022-08-09T03:00:20.767Z,16.94
2022-08-09T03:01:08.012Z,16.99
2022-08-09T03:02:06.939Z,16.92
2022-08-09T03:03:05.810Z,17.01
2022-08-09T03:04:17.914Z,16.94
2022-08-09T03:05:06.808Z,16.97
2022-08-09T03:06:05.780Z,16.97
2022-08-09T03:07:14.124Z,16.99
2022-08-09T03:08:06.751Z,16.98
2022-08-09T03:09:05.743Z,16.91
2022-08-09T03:10:05.721Z,16.94
2022-08-09T03:11:05.718Z,16.92
2022-08-09T03:12:10.758Z,16.90
2022-08-09T03:13:08.452Z,16.90
2022-08-09T03:14:05.694Z,17.02
2022-08-09T03:15:05.864Z,16.95
2022-08-09T03:16:06.191Z,17.01
2022-08-09T03:17:05.948Z,17.01
2022-08-09T03:18:10.715Z,16.99
2022-08-09T03:19:14.147Z,16.99
2022-08-09T03:20:11.576Z,17.06
2022-08-09T03:21:06.610Z,17.06
2022-08-09T03:22:05.599Z,17.09
2022-08-09T03:23:15.213Z,17.02
2022-08-09T03:24:06.603Z,17.07
2022-08-09T03:25:21.954Z,17.09
2022-08-09T03:26:06.566Z,17.07
2022-08-09T03:27:07.230Z,17.07
2022-08-09T03:28:05.540Z,17.13
2022-08-09T03:29:13.443Z,17.09
2022-08-09T03:30:07.629Z,17.09
2022-08-09T03:31:10.154Z,17.10
2022-08-09T03:32:06.521Z,17.04
2022-08-09T03:33:17.645Z,17.07
2022-08-09T03:34:06.463Z,17.13
2022-08-09T03:35:15.092Z,17.20
2022-08-09T03:36:12.282Z,17.06
2022-08-09T03:37:54.155Z,17.06
2022-08-09T03:38:06.418Z,17.02
2022-08-09T03:39:05.431Z,17.19
2022-08-09T03:40:05.488Z,17.19
2022-08-09T03:41:05.397Z,17.22
2022-08-09T03:42:06.723Z,17.22
2022-08-09T03:43:05.380Z,17.16
2022-08-09T03:44:08.471Z,17.16
2022-08-09T03:45:05.354Z,17.24
2022-08-09T03:46:20.261Z,17.25
2022-08-09T03:47:06.326Z,17.19
2022-08-09T03:48:05.324Z,17.13
2022-08-09T03:49:08.777Z,17.12
2022-08-09T03:50:05.298Z,17.17
2022-08-09T03:51:05.298Z,17.22
2022-08-09T03:52:06.269Z,17.20
2022-08-09T03:53:05.362Z,17.17
2022-08-09T03:54:05.249Z,17.12
2022-08-09T03:55:07.677Z,17.22
2022-08-09T03:56:05.242Z,17.22
2022-08-09T03:57:18.416Z,17.22
2022-08-09T03:58:09.938Z,17.27
2022-08-09T03:59:07.148Z,17.30
2022-08-09T04:00:05.187Z,17.25
2022-08-09T04:01:05.287Z,17.34
2022-08-09T04:02:05.166Z,17.28
2022-08-09T04:03:05.147Z,17.34
2022-08-09T04:04:09.925Z,17.32
2022-08-09T04:05:17.082Z,17.27
2022-08-09T04:06:06.126Z,17.38
2022-08-09T04:07:05.131Z,17.43
2022-08-09T04:08:05.101Z,17.39
2022-08-09T04:09:05.092Z,17.43
2022-08-09T04:10:06.095Z,17.45
2022-08-09T04:11:05.086Z,17.38
2022-08-09T04:12:05.048Z,17.41
2022-08-09T04:13:05.055Z,17.37
2022-08-09T04:14:53.085Z,17.35
2022-08-09T04:15:17.066Z,17.32
2022-08-09T04:16:19.919Z,17.41
2022-08-09T04:17:05.994Z,17.41
2022-08-09T04:18:05.014Z,17.38
2022-08-09T04:19:04.992Z,17.45
2022-08-09T04:20:05.972Z,17.39
2022-08-09T04:21:04.953Z,17.46
2022-08-09T04:22:04.968Z,17.45
2022-08-09T04:23:10.064Z,17.45
2022-08-09T04:24:05.925Z,17.39
2022-08-09T04:25:04.917Z,17.41
2022-08-09T04:26:04.908Z,17.39
2022-08-09T04:27:04.894Z,17.41
2022-08-09T04:28:04.906Z,17.34
2022-08-09T04:29:10.926Z,17.47
2022-08-09T04:30:05.855Z,17.45
2022-08-09T04:31:08.084Z,17.41
2022-08-09T04:32:05.325Z,17.41
2022-08-09T04:33:04.823Z,17.45
2022-08-09T04:34:04.833Z,17.34
2022-08-09T04:35:04.809Z,17.43
2022-08-09T04:36:05.747Z,17.49
2022-08-09T04:37:04.790Z,17.43
2022-08-09T04:38:04.777Z,17.45
2022-08-09T04:39:04.831Z,17.49
2022-08-09T04:40:04.755Z,17.49
2022-08-09T04:41:04.753Z,17.49
2022-08-09T04:42:05.730Z,17.53
2022-08-09T04:43:05.445Z,17.49
2022-08-09T04:44:06.380Z,17.59
2022-08-09T04:45:04.700Z,17.54
2022-08-09T04:46:04.698Z,17.50
2022-08-09T04:47:06.341Z,17.50
2022-08-09T04:48:09.873Z,17.50
2022-08-09T04:49:05.673Z,17.46
2022-08-09T04:50:04.655Z,17.47
2022-08-09T04:51:04.634Z,17.50
2022-08-09T04:52:04.632Z,17.50
2022-08-09T04:53:04.611Z,17.50
2022-08-09T04:54:04.598Z,17.54
2022-08-09T04:55:07.653Z,17.53
2022-08-09T04:56:05.532Z,17.49
2022-08-09T04:57:04.573Z,17.50
2022-08-09T04:58:09.529Z,17.54
2022-08-09T04:59:13.185Z,17.63
2022-08-09T05:00:05.538Z,17.63
2022-08-09T05:01:04.525Z,17.57
2022-08-09T05:02:05.521Z,17.57
2022-08-09T05:03:24.154Z,17.65
2022-08-09T05:04:05.557Z,17.69
2022-08-09T05:05:10.060Z,17.73
2022-08-09T05:06:07.065Z,17.72
2022-08-09T05:07:04.471Z,17.72
2022-08-09T05:08:04.475Z,17.84
2022-08-09T05:09:04.440Z,17.84
2022-08-09T05:10:04.461Z,17.79
2022-08-09T05:11:06.665Z,17.87
2022-08-09T05:12:04.417Z,17.76
2022-08-09T05:13:04.407Z,17.81
2022-08-09T05:14:05.934Z,17.88
2022-08-09T05:15:11.889Z,17.93
2022-08-09T05:16:05.414Z,17.96
2022-08-09T05:17:04.363Z,17.91
2022-08-09T05:18:38.008Z,17.90
2022-08-09T05:19:05.354Z,17.88
2022-08-09T05:20:04.331Z,17.96
2022-08-09T05:21:13.353Z,18.05
2022-08-09T05:22:05.319Z,18.06
2022-08-09T05:23:56.799Z,18.12
2022-08-09T05:24:05.791Z,18.20
2022-08-09T05:25:04.278Z,18.15
2022-08-09T05:26:04.265Z,18.13
2022-08-09T05:27:04.267Z,18.21
2022-08-09T05:28:04.256Z,18.23
2022-08-09T05:29:04.245Z,18.17
2022-08-09T05:30:04.224Z,18.11
2022-08-09T05:31:09.688Z,18.24
2022-08-09T05:32:05.896Z,18.20
2022-08-09T05:33:04.191Z,18.33
2022-08-09T05:34:05.180Z,18.26
2022-08-09T05:35:04.164Z,18.28
2022-08-09T05:36:04.176Z,18.27
2022-08-09T05:37:05.165Z,18.42
2022-08-09T05:38:04.140Z,18.49
2022-08-09T05:39:04.186Z,18.46
2022-08-09T05:40:04.199Z,18.56
2022-08-09T05:41:04.101Z,18.64
2022-08-09T05:42:04.528Z,18.58
2022-08-09T05:43:04.091Z,18.75
2022-08-09T05:44:04.071Z,18.81
2022-08-09T05:45:04.089Z,18.96
2022-08-09T05:46:04.066Z,18.94
2022-08-09T05:47:11.638Z,18.96
2022-08-09T05:48:11.597Z,19.12
2022-08-09T05:49:13.718Z,18.97
2022-08-09T05:50:16.889Z,19.00
2022-08-09T05:51:29.836Z,19.12
2022-08-09T05:52:04.989Z,19.19
2022-08-09T05:53:03.988Z,19.17
2022-08-09T05:54:04.344Z,19.17
2022-08-09T05:55:07.466Z,19.15
2022-08-09T05:56:03.942Z,19.23
2022-08-09T05:57:03.923Z,19.20
2022-08-09T05:58:07.111Z,19.24
2022-08-09T05:59:03.909Z,19.34
2022-08-09T06:00:03.899Z,19.24
2022-08-09T06:01:03.906Z,19.38
2022-08-09T06:02:03.873Z,19.41
2022-08-09T06:03:04.069Z,19.52
2022-08-09T06:04:05.917Z,19.52
2022-08-09T06:05:03.846Z,19.59
2022-08-09T06:06:05.739Z,19.60
2022-08-09T06:07:03.845Z,19.52
2022-08-09T06:08:05.562Z,19.71
2022-08-09T06:09:09.914Z,19.74
2022-08-09T06:10:04.826Z,19.77
2022-08-09T06:11:16.337Z,19.89
2022-08-09T06:12:04.832Z,20.15
2022-08-09T06:13:12.183Z,20.19
2022-08-09T06:14:04.747Z,20.32
2022-08-09T06:15:07.010Z,20.27
2022-08-09T06:16:05.316Z,20.27
2022-08-09T06:17:09.384Z,20.33
2022-08-09T06:18:04.700Z,20.41
2022-08-09T06:19:03.696Z,20.55
2022-08-09T06:20:03.682Z,20.65
2022-08-09T06:21:04.207Z,20.68
2022-08-09T06:22:03.664Z,20.85
2022-08-09T06:23:03.660Z,20.88
2022-08-09T06:24:03.635Z,20.88
2022-08-09T06:25:03.651Z,20.92
2022-08-09T06:26:03.646Z,21.13
2022-08-09T06:27:03.626Z,21.11
2022-08-09T06:28:03.604Z,21.19
2022-08-09T06:29:05.407Z,21.32
2022-08-09T06:30:04.437Z,21.41
2022-08-09T06:31:04.586Z,21.43
2022-08-09T06:32:08.387Z,21.38
2022-08-09T06:33:30.497Z,21.44
2022-08-09T06:34:04.540Z,21.43
2022-08-09T06:35:06.424Z,21.59
2022-08-09T06:36:03.519Z,21.50
2022-08-09T06:37:03.514Z,21.44
2022-08-09T06:38:05.475Z,21.45
2022-08-09T06:39:09.223Z,21.56
2022-08-09T06:40:21.909Z,21.43
2022-08-09T06:41:04.461Z,21.32
2022-08-09T06:42:08.669Z,21.32
2022-08-09T06:43:04.440Z,21.40
2022-08-09T06:44:04.450Z,21.47
2022-08-09T06:45:20.394Z,21.62
2022-08-09T06:46:10.507Z,21.80
2022-08-09T06:47:04.409Z,21.93
2022-08-09T06:48:03.405Z,21.93
2022-08-09T06:49:03.384Z,21.93
2022-08-09T06:50:14.885Z,21.77
2022-08-09T06:51:05.188Z,21.55
2022-08-09T06:52:03.370Z,21.43
2022-08-09T06:53:03.340Z,21.32
2022-08-09T06:54:03.338Z,21.13
2022-08-09T06:55:10.125Z,21.11
2022-08-09T06:56:04.308Z,21.13
2022-08-09T06:57:03.292Z,21.19
2022-08-09T06:58:04.649Z,21.19
2022-08-09T07:00:51.002Z,21.26
2022-08-09T07:00:51.082Z,21.25
2022-08-09T07:01:04.251Z,21.40
2022-08-09T07:02:03.925Z,21.41
2022-08-09T07:03:06.124Z,21.35
2022-08-09T07:04:04.152Z,21.37
2022-08-09T07:05:03.228Z,21.41
2022-08-09T07:06:05.363Z,21.43
2022-08-09T07:07:04.943Z,21.55
2022-08-09T07:08:03.171Z,21.56
2022-08-09T07:09:03.163Z,21.82
2022-08-09T07:10:14.214Z,21.98
2022-08-09T07:11:04.209Z,22.15
2022-08-09T07:12:03.128Z,22.09
2022-08-09T07:13:18.621Z,22.00
2022-08-09T07:14:06.251Z,22.09
2022-08-09T07:15:53.318Z,22.04
2022-08-09T07:16:43.270Z,22.15
2022-08-09T07:17:04.094Z,22.30
2022-08-09T07:18:03.365Z,22.40
2022-08-09T07:19:03.057Z,22.48
2022-08-09T07:20:03.042Z,22.52
2022-08-09T07:21:03.053Z,22.46
2022-08-09T07:22:04.029Z,22.70
2022-08-09T07:23:03.020Z,22.76
2022-08-09T07:24:04.912Z,23.03
2022-08-09T07:25:05.070Z,23.07
2022-08-09T07:26:04.159Z,23.07
2022-08-09T07:27:03.000Z,23.01
2022-08-09T07:28:04.383Z,22.91
2022-08-09T07:29:12.214Z,22.92
2022-08-09T07:30:03.944Z,22.86
2022-08-09T07:31:02.959Z,22.95
2022-08-09T07:32:02.946Z,23.18
2022-08-09T07:33:02.909Z,23.33
2022-08-09T07:34:03.893Z,23.39
2022-08-09T07:35:08.086Z,23.49
2022-08-09T07:36:03.872Z,23.44
2022-08-09T07:37:03.626Z,23.23
2022-08-09T07:38:02.888Z,23.23
2022-08-09T07:39:02.886Z,23.17
2022-08-09T07:40:02.883Z,23.18
2022-08-09T07:41:11.613Z,23.13
2022-08-09T07:42:03.829Z,23.14
2022-08-09T07:43:02.803Z,23.14
2022-08-09T07:44:02.796Z,23.22
2022-08-09T07:45:14.998Z,23.04
2022-08-09T07:46:03.781Z,22.98
2022-08-09T07:47:02.777Z,23.04
2022-08-09T07:48:04.635Z,23.03
2022-08-09T07:49:02.737Z,22.95
2022-08-09T07:50:08.273Z,22.96
2022-08-09T07:52:03.195Z,22.92
2022-08-09T07:52:17.148Z,22.92
2022-08-09T07:53:04.781Z,23.03
2022-08-09T07:54:05.108Z,23.06
2022-08-09T07:55:03.930Z,23.10
2022-08-09T07:56:06.848Z,23.04
2022-08-09T07:57:02.650Z,23.04
2022-08-09T07:58:03.639Z,22.95
2022-08-09T07:59:12.441Z,22.99
2022-08-09T08:00:04.254Z,23.11
2022-08-09T08:01:06.757Z,23.17
2022-08-09T08:02:04.870Z,23.33
2022-08-09T08:03:04.566Z,23.42
2022-08-09T08:04:02.630Z,23.52
2022-08-09T08:05:02.596Z,23.46
2022-08-09T08:06:03.556Z,23.59
2022-08-09T08:07:27.088Z,23.37
2022-08-09T08:09:02.747Z,23.44
2022-08-09T08:09:07.768Z,23.28
2022-08-09T08:10:08.507Z,23.29
2022-08-09T08:12:09.033Z,23.36
2022-08-09T08:12:24.211Z,23.54
2022-08-09T08:13:03.746Z,23.69
2022-08-09T08:14:02.468Z,23.84
2022-08-09T08:15:02.463Z,23.89
2022-08-09T08:16:02.451Z,23.89
2022-08-09T08:17:08.836Z,23.81
2022-08-09T08:18:03.686Z,23.81
2022-08-09T08:19:02.872Z,23.70
2022-08-09T08:20:02.412Z,23.71
2022-08-09T08:21:03.387Z,23.79
2022-08-09T08:22:02.379Z,23.86
2022-08-09T08:23:06.946Z,23.84
2022-08-09T08:24:12.238Z,23.84
2022-08-09T08:25:03.403Z,23.92
2022-08-09T08:26:06.360Z,23.86
2022-08-09T08:27:02.376Z,23.86
2022-08-09T08:28:02.328Z,23.88
2022-08-09T08:29:02.745Z,23.85
2022-08-09T08:30:04.252Z,23.81
2022-08-09T08:31:10.414Z,23.69
2022-08-09T08:32:05.913Z,23.71
2022-08-09T08:33:02.258Z,23.86
2022-08-09T08:34:02.266Z,23.79
2022-08-09T08:35:02.244Z,23.88
2022-08-09T08:36:03.528Z,24.00
2022-08-09T08:37:02.210Z,24.08
2022-08-09T08:38:11.395Z,24.08
2022-08-09T08:39:03.220Z,24.13
2022-08-09T08:40:02.308Z,24.26
2022-08-09T08:41:06.337Z,24.25
2022-08-09T08:42:02.196Z,24.45
2022-08-09T08:43:02.183Z,24.53
2022-08-09T08:44:03.526Z,24.48
2022-08-09T08:45:11.666Z,24.53
2022-08-09T08:46:09.916Z,24.58
2022-08-09T08:47:12.647Z,24.63
2022-08-09T08:48:03.128Z,24.58
2022-08-09T08:49:02.092Z,24.70
2022-08-09T08:50:02.631Z,24.53
2022-08-09T08:51:02.067Z,24.55
2022-08-09T08:52:04.173Z,24.66
2022-08-09T08:53:03.470Z,24.58
2022-08-09T08:54:03.901Z,24.65
2022-08-09T08:55:04.027Z,24.75
2022-08-09T08:56:02.002Z,24.70
2022-08-09T08:57:01.997Z,24.55
2022-08-09T08:58:02.982Z,24.56
2022-08-09T08:59:01.993Z,24.53
2022-08-09T09:00:02.986Z,24.65
2022-08-09T09:01:03.040Z,24.79
2022-08-09T09:02:03.068Z,24.62
2022-08-09T09:03:11.563Z,24.58
2022-08-09T09:04:02.934Z,24.66
2022-08-09T09:05:06.153Z,24.79
2022-08-09T09:06:05.014Z,24.93
2022-08-09T09:07:01.892Z,24.91
2022-08-09T09:08:01.873Z,24.91
2022-08-09T09:09:01.864Z,24.90
2022-08-09T09:10:04.987Z,24.78
2022-08-09T09:11:02.912Z,24.60
2022-08-09T09:12:01.878Z,24.58
2022-08-09T09:13:09.454Z,24.71
2022-08-09T09:14:02.837Z,24.63
2022-08-09T09:15:01.804Z,24.78
2022-08-09T09:16:01.800Z,24.68
2022-08-09T09:17:01.811Z,24.79
2022-08-09T09:18:01.778Z,24.84
2022-08-09T09:20:02.747Z,24.97
2022-08-09T09:21:01.746Z,24.93
2022-08-09T09:22:04.267Z,24.97
2022-08-09T09:23:02.377Z,24.85
2022-08-09T09:24:04.455Z,24.90
2022-08-09T09:26:05.065Z,24.94
2022-08-09T09:26:12.304Z,25.12
2022-08-09T09:27:02.699Z,25.16
2022-08-09T09:28:06.448Z,25.22
2022-08-09T09:29:10.456Z,25.28
2022-08-09T09:30:11.437Z,25.30
2022-08-09T09:31:02.633Z,25.28
2022-08-09T09:32:06.598Z,25.34
2022-08-09T09:33:02.645Z,25.49
2022-08-09T09:34:02.599Z,25.52
2022-08-09T09:35:01.636Z,25.49
2022-08-09T09:36:03.953Z,25.61
2022-08-09T09:37:02.595Z,25.66
2022-08-09T09:38:01.578Z,25.68
2022-08-09T09:39:01.566Z,25.71
2022-08-09T09:40:02.721Z,25.67
2022-08-09T09:41:01.529Z,25.61
2022-08-09T09:42:01.530Z,25.66
2022-08-09T09:43:01.652Z,25.59
2022-08-09T09:44:10.755Z,25.66
2022-08-09T09:45:03.213Z,25.64
2022-08-09T09:47:02.483Z,25.64
2022-08-09T09:48:01.481Z,25.55
2022-08-09T09:49:01.461Z,25.41
2022-08-09T09:50:14.315Z,25.34
2022-08-09T09:51:02.433Z,25.40
2022-08-09T09:52:01.417Z,25.40
2022-08-09T09:53:01.637Z,25.31
2022-08-09T09:54:06.394Z,25.51
2022-08-09T09:55:02.596Z,25.53
2022-08-09T09:56:04.093Z,25.66
2022-08-09T09:58:04.183Z,25.77
2022-08-09T09:58:19.194Z,25.83
2022-08-09T09:59:02.349Z,25.93
2022-08-09T10:00:01.355Z,26.19
2022-08-09T10:01:01.322Z,26.16
2022-08-09T10:02:01.314Z,26.23
2022-08-09T10:03:11.613Z,26.24
2022-08-09T10:04:04.355Z,26.28
2022-08-09T10:05:02.302Z,26.34
2022-08-09T10:06:04.498Z,26.30
2022-08-09T10:07:03.523Z,26.24
2022-08-09T10:08:28.079Z,26.36
2022-08-09T10:09:02.972Z,26.30
2022-08-09T10:10:03.252Z,26.15
2022-08-09T10:11:06.948Z,25.93
2022-08-09T10:12:12.881Z,25.90
2022-08-09T10:14:11.570Z,25.93
2022-08-09T10:15:50.720Z,26.10
2022-08-09T10:16:58.025Z,26.20
2022-08-09T10:17:40.044Z,26.36
2022-08-09T10:18:12.503Z,26.41
2022-08-09T10:19:11.483Z,26.36
2022-08-09T10:20:15.248Z,26.34
2022-08-09T10:21:11.427Z,26.38
2022-08-09T10:22:11.444Z,26.34
2022-08-09T10:23:11.413Z,26.38
2022-08-09T10:24:15.843Z,26.24
2022-08-09T10:25:14.271Z,26.33
2022-08-09T10:26:11.391Z,26.16
2022-08-09T10:27:17.442Z,26.10
2022-08-09T10:28:12.358Z,25.95
2022-08-09T10:29:37.190Z,25.75
2022-08-09T10:32:03.970Z,25.81
2022-08-09T10:32:38.289Z,26.19
2022-08-09T10:34:05.001Z,26.19
2022-08-09T10:34:33.082Z,26.08
2022-08-09T10:35:13.234Z,26.00
2022-08-09T10:36:12.252Z,25.78
2022-08-09T10:37:13.826Z,25.71
2022-08-09T10:38:33.641Z,25.61
2022-08-09T10:39:15.661Z,25.63
2022-08-09T10:40:33.279Z,25.66
2022-08-09T10:41:12.223Z,25.89
2022-08-09T10:42:11.210Z,26.07
2022-08-09T10:43:11.214Z,26.20
2022-08-09T10:44:11.200Z,26.20
2022-08-09T10:45:16.031Z,26.38
2022-08-09T10:46:19.195Z,26.53
2022-08-09T10:48:12.459Z,26.82
2022-08-09T10:48:26.183Z,26.76
2022-08-09T10:49:12.146Z,26.94
2022-08-09T10:50:14.641Z,27.03
2022-08-09T10:51:11.127Z,27.17
2022-08-09T10:52:13.488Z,27.15
2022-08-09T10:53:12.102Z,27.19
2022-08-09T10:54:12.510Z,27.00
2022-08-09T10:55:11.093Z,26.79
2022-08-09T10:56:11.073Z,26.67
2022-08-09T10:57:11.057Z,26.89
2022-08-09T10:58:15.459Z,26.98
2022-08-09T10:59:12.041Z,27.04
2022-08-09T11:00:11.027Z,27.34
2022-08-09T11:03:14.733Z,27.50
2022-08-09T11:03:15.878Z,27.66
2022-08-09T11:03:50.180Z,27.60
2022-08-09T11:04:19.989Z,27.63
2022-08-09T11:05:12.033Z,27.66
2022-08-09T11:06:11.977Z,27.66
2022-08-09T11:07:10.987Z,27.72
2022-08-09T11:08:10.942Z,27.57
2022-08-09T11:09:15.804Z,27.70
2022-08-09T11:10:11.940Z,27.73
2022-08-09T11:11:10.917Z,27.90
2022-08-09T11:12:10.904Z,27.85
2022-08-09T11:13:10.924Z,27.76
2022-08-09T11:14:11.903Z,27.87
2022-08-09T11:15:14.283Z,27.60
2022-08-09T11:16:11.864Z,27.58
2022-08-09T11:18:21.248Z,27.23
2022-08-09T11:19:21.175Z,27.26
2022-08-09T11:20:23.409Z,27.26
2022-08-09T11:21:21.242Z,27.35
2022-08-09T11:22:24.531Z,27.44
2022-08-09T11:23:23.852Z,27.60
2022-08-09T11:24:21.129Z,27.68
2022-08-09T11:25:25.694Z,27.76
2022-08-09T11:26:22.114Z,27.82
2022-08-09T11:28:05.432Z,27.64
2022-08-09T11:28:30.616Z,27.63
2022-08-09T11:30:05.703Z,27.50
2022-08-09T11:30:32.520Z,27.52
2022-08-09T11:31:36.470Z,27.50
2022-08-09T11:32:22.021Z,27.68
2022-08-09T11:33:21.013Z,27.95
2022-08-09T11:34:21.026Z,28.05
2022-08-09T11:35:25.040Z,28.31
2022-08-09T11:36:35.409Z,28.25
2022-08-09T11:37:22.022Z,28.28
2022-08-09T11:38:22.578Z,28.16
2022-08-09T11:39:22.077Z,28.09
2022-08-09T11:40:20.949Z,28.00
2022-08-09T11:41:21.956Z,27.90
2022-08-09T11:42:20.927Z,27.66
2022-08-09T11:43:20.918Z,27.32
2022-08-09T11:44:20.910Z,26.85
2022-08-09T11:45:20.895Z,26.73
2022-08-09T11:46:33.015Z,26.79
2022-08-09T11:47:21.919Z,26.79
2022-08-09T11:48:26.344Z,26.68
2022-08-09T11:49:27.892Z,26.51
2022-08-09T11:50:55.326Z,26.52
2022-08-09T11:53:02.090Z,26.89
2022-08-09T11:53:02.448Z,26.75
2022-08-09T11:53:59.569Z,27.22
2022-08-09T11:54:29.727Z,27.58
2022-08-09T11:55:21.838Z,27.76
2022-08-09T11:56:21.799Z,28.09
2022-08-09T11:57:28.568Z,28.32
2022-08-09T11:58:32.292Z,28.03
2022-08-09T11:59:21.754Z,27.94
2022-08-09T12:00:24.750Z,28.12
2022-08-09T12:01:37.509Z,28.24
2022-08-09T12:02:37.138Z,28.28
2022-08-09T12:03:55.946Z,28.50
2022-08-09T12:04:23.608Z,28.53
2022-08-09T12:05:22.962Z,28.79
2022-08-09T12:06:24.837Z,28.71
2022-08-09T12:07:21.666Z,28.68
2022-08-09T12:08:21.895Z,28.79
2022-08-09T12:09:21.076Z,28.65
2022-08-09T12:10:39.869Z,28.43
2022-08-09T12:11:21.629Z,28.44
2022-08-09T12:12:29.041Z,28.32
2022-08-09T12:14:08.269Z,27.49
2022-08-09T12:14:28.739Z,27.61
2022-08-09T12:15:23.245Z,27.73
2022-08-09T12:16:37.294Z,27.63
2022-08-09T12:17:34.216Z,27.57
2022-08-09T12:18:29.600Z,27.52
2022-08-09T12:19:21.570Z,27.16
2022-08-09T12:20:22.417Z,26.95
2022-08-09T12:21:28.259Z,27.00
2022-08-09T12:22:21.509Z,27.15
2022-08-09T12:23:24.754Z,27.30
2022-08-09T12:24:29.839Z,27.30
2022-08-09T12:25:36.681Z,27.42
2022-08-09T12:29:13.165Z,27.68
2022-08-09T12:29:15.411Z,27.75
2022-08-09T12:29:43.578Z,27.34
2022-08-09T12:30:36.333Z,26.94
2022-08-09T12:31:58.963Z,26.80
2022-08-09T12:32:31.943Z,26.75
2022-08-09T12:33:51.405Z,26.97
2022-08-09T12:34:31.707Z,27.03
2022-08-09T12:35:34.780Z,27.12
2022-08-09T12:36:33.625Z,26.98
2022-08-09T12:37:30.672Z,26.95
2022-08-09T12:38:37.991Z,26.89
2022-08-09T12:39:31.692Z,26.98
2022-08-09T12:40:31.672Z,26.90
2022-08-09T12:41:34.875Z,26.93
2022-08-09T12:42:31.854Z,26.86
2022-08-09T12:44:06.525Z,26.90
2022-08-09T12:44:37.249Z,26.76
2022-08-09T12:45:33.515Z,26.64
2022-08-09T12:46:31.578Z,26.80
2022-08-09T12:47:32.715Z,26.93
2022-08-09T12:48:33.840Z,26.97
2022-08-09T12:49:31.561Z,27.04
2022-08-09T12:50:30.556Z,27.17
2022-08-09T12:52:00.065Z,27.41
2022-08-09T12:52:42.628Z,27.44
2022-08-09T12:53:37.854Z,27.22
2022-08-09T12:54:31.495Z,27.22
2022-08-09T12:56:14.780Z,27.13
2022-08-09T12:56:44.021Z,27.19
2022-08-09T12:57:31.502Z,27.25
2022-08-09T12:58:30.481Z,27.64